createdAt,value
2023-01-15T05:13:37.319Z,10.20
2023-01-15T05:28:41.781Z,10.00
2023-01-15T05:43:46.449Z,10.40
2023-01-15T05:58:50.970Z,10.30
2023-01-15T06:13:55.800Z,10.20
2023-01-15T06:29:00.337Z,9.60
2023-01-15T06:44:22.601Z,10.00
2023-01-15T06:59:27.308Z,10.00
2023-01-15T07:14:33.214Z,10.00
2023-01-15T07:29:37.757Z,9.80
2023-01-15T07:44:59.975Z,10.00
2023-01-15T08:00:05.208Z,9.90
2023-01-15T08:15:16.899Z,9.70
2023-01-15T08:30:23.788Z,9.80
2023-01-15T08:45:28.197Z,10.10
2023-01-15T09:00:32.796Z,9.70
2023-01-15T09:15:37.227Z,10.00
2023-01-15T09:30:41.702Z,10.20
2023-01-15T09:45:52.105Z,10.30
2023-01-15T10:00:58.202Z,10.60
2023-01-15T10:16:03.225Z,10.50
2023-01-15T10:31:16.868Z,10.50
2023-01-15T10:46:27.154Z,10.90
2023-01-15T11:01:32.085Z,10.80
2023-01-15T11:16:56.175Z,10.90
2023-01-15T11:32:00.678Z,11.00
2023-01-15T11:47:28.818Z,10.80
2023-01-15T12:02:40.014Z,11.00
2023-01-15T12:18:08.190Z,11.00
2023-01-15T12:33:21.952Z,11.10
2023-01-15T12:48:35.588Z,11.30
2023-01-15T13:03:52.138Z,11.50
2023-01-15T13:19:11.997Z,11.40
2023-01-15T13:34:24.553Z,11.80
2023-01-15T13:49:34.286Z,12.00
2023-01-15T14:04:40.665Z,11.90
2023-01-15T14:20:11.412Z,11.60
2023-01-15T14:35:20.699Z,11.70
2023-01-15T14:50:33.493Z,11.70
2023-01-15T15:05:38.187Z,12.00
2023-01-15T15:20:51.219Z,11.80
2023-01-15T15:35:57.838Z,11.90
2023-01-15T15:51:03.014Z,11.80
2023-01-15T16:06:10.188Z,11.70
2023-01-15T16:21:20.723Z,11.50
2023-01-15T16:36:26.292Z,11.40
2023-01-15T16:51:35.411Z,11.30
2023-01-15T17:06:39.898Z,11.50
2023-01-15T17:21:47.280Z,11.40
2023-01-15T17:36:51.683Z,11.20
2023-01-15T17:51:56.120Z,11.00
2023-01-15T18:07:01.570Z,11.20
2023-01-15T18:22:06.226Z,11.00
2023-01-15T18:37:10.720Z,11.10
2023-01-15T18:52:34.268Z,10.90
2023-01-15T19:07:38.833Z,10.70
2023-01-15T19:23:05.182Z,10.80
2023-01-15T19:38:11.684Z,10.90
2023-01-15T19:53:16.785Z,10.90
2023-01-15T20:08:21.387Z,10.80
2023-01-15T20:23:26.049Z,10.50
2023-01-15T20:38:31.201Z,10.90
2023-01-15T20:53:35.972Z,10.60
2023-01-15T21:08:42.101Z,10.90
